Time;durP1;ratioP1;P1;durP2;ratioP2;P2;SDS_P1;SDS_P2;PMS_P1;PMS_P2;Temp;Humidity;BMP_temperature;BMP_pressure;BME280_temperature;BME280_humidity;BME280_pressure;Samples;Min_cycle;Max_cycle;Signal;HPM_P1;HPM_P2
2022/05/13 00:00:34;;;;;;;3.70;1.73;;;15.50;92.40;;;;;;4180203;28;20214;-84
2022/05/13 00:02:35;;;;;;;4.53;1.97;;;15.20;93.60;;;;;;4170250;28;20221;-83
2022/05/13 00:04:38;;;;;;;3.23;1.80;;;15.20;95.50;;;;;;4180429;28;20217;-82
2022/05/13 00:06:40;;;;;;;3.60;2.20;;;15.10;96.80;;;;;;4166269;28;20272;-84
2022/05/13 00:08:42;;;;;;;3.83;1.80;;;15.10;98.00;;;;;;4164373;28;20212;-83
2022/05/13 00:10:47;;;;;;;3.73;1.70;;;15.00;98.90;;;;;;4181845;28;20219;-83
2022/05/13 00:12:49;;;;;;;2.60;1.70;;;15.10;99.60;;;;;;4177964;28;20264;-83
2022/05/13 00:14:51;;;;;;;6.40;2.40;;;14.90;99.40;;;;;;4167196;28;20212;-84
2022/05/13 00:16:53;;;;;;;3.43;1.97;;;14.90;99.50;;;;;;4168831;28;20236;-84
2022/05/13 00:18:55;;;;;;;5.20;2.27;;;14.80;99.80;;;;;;4175134;28;20220;-83
2022/05/13 00:20:58;;;;;;;4.70;2.13;;;14.80;99.90;;;;;;4176947;28;20713;-84
2022/05/13 00:23:00;;;;;;;5.07;2.00;;;14.80;99.90;;;;;;4163743;28;20217;-83
2022/05/13 00:25:02;;;;;;;2.77;1.87;;;14.80;99.90;;;;;;4163484;28;20210;-83
2022/05/13 00:27:06;;;;;;;3.70;2.23;;;14.80;99.90;;;;;;4163689;28;20291;-84
2022/05/13 00:29:08;;;;;;;4.20;1.80;;;14.70;99.90;;;;;;4176395;28;20213;-84
2022/05/13 00:31:12;;;;;;;3.43;2.20;;;14.70;99.90;;;;;;4173590;28;20303;-83
2022/05/13 00:33:13;;;;;;;2.83;2.00;;;14.80;99.90;;;;;;4170796;28;20247;-84
2022/05/13 00:35:16;;;;;;;4.60;2.10;;;14.70;99.90;;;;;;4175981;28;20300;-83
2022/05/13 00:37:18;;;;;;;3.57;2.10;;;14.70;99.90;;;;;;4175612;28;20302;-83
2022/05/13 00:39:19;;;;;;;4.37;2.10;;;14.60;99.90;;;;;;4172681;28;20220;-83
2022/05/13 00:41:21;;;;;;;3.77;2.07;;;14.60;99.90;;;;;;4176484;28;20218;-83
2022/05/13 00:43:44;;;;;;;3.67;2.03;;;14.60;99.90;;;;;;4167145;28;20210;-83
2022/05/13 00:45:46;;;;;;;3.40;2.00;;;15.00;99.90;;;;;;4172745;28;20244;-83
2022/05/13 00:47:47;;;;;;;7.67;2.13;;;14.50;99.90;;;;;;4164122;28;20223;-83
2022/05/13 00:49:51;;;;;;;5.60;1.83;;;14.50;99.90;;;;;;4173149;28;20241;-83
2022/05/13 00:51:55;;;;;;;4.53;1.90;;;14.40;99.90;;;;;;4175618;28;20233;-83
2022/05/13 00:53:57;;;;;;;5.67;2.20;;;14.40;99.90;;;;;;4184348;28;20206;-83
2022/05/13 00:56:00;;;;;;;4.57;2.03;;;14.40;99.90;;;;;;4178772;28;20246;-83
2022/05/13 00:58:05;;;;;;;4.20;2.10;;;14.40;99.90;;;;;;4165349;28;20253;-84
2022/05/13 01:00:13;;;;;;;5.40;2.17;;;14.30;99.90;;;;;;4178555;28;20246;-83
2022/05/13 02:11:03;;;;;;;4.10;2.37;;;13.10;99.90;;;;;;4152956;28;20229;-80
2022/05/13 02:13:06;;;;;;;5.93;2.63;;;13.10;99.90;;;;;;4161200;28;20755;-80
2022/05/13 02:15:09;;;;;;;4.53;2.40;;;13.00;99.90;;;;;;4151315;28;20221;-79
2022/05/13 02:17:10;;;;;;;3.83;2.40;;;13.00;99.90;;;;;;4156193;28;20716;-80
2022/05/13 02:19:13;;;;;;;5.33;2.33;;;12.90;99.90;;;;;;4155699;28;20281;-79
2022/05/13 02:21:16;;;;;;;5.00;2.60;;;12.90;99.90;;;;;;4160104;28;20654;-79
2022/05/13 02:23:19;;;;;;;4.80;2.60;;;12.80;99.90;;;;;;4157320;28;20222;-79
2022/05/13 02:25:21;;;;;;;4.70;2.77;;;12.80;99.90;;;;;;4159080;28;20219;-79
2022/05/13 02:27:23;;;;;;;2.93;2.40;;;12.80;99.90;;;;;;4157496;28;20222;-79
2022/05/13 02:29:26;;;;;;;5.33;2.80;;;12.70;99.90;;;;;;4160203;28;20691;-80
2022/05/13 02:31:28;;;;;;;5.07;2.53;;;12.70;99.90;;;;;;4162234;28;20239;-79
2022/05/13 02:33:32;;;;;;;4.87;2.43;;;12.70;99.90;;;;;;4161795;28;20253;-79
2022/05/13 02:35:34;;;;;;;6.10;2.80;;;12.70;99.90;;;;;;4160914;28;20227;-80
2022/05/13 02:37:36;;;;;;;3.43;2.40;;;12.70;99.90;;;;;;4165137;28;20214;-79
2022/05/13 02:39:38;;;;;;;6.90;2.50;;;12.60;99.90;;;;;;4163785;28;20652;-80
2022/05/13 02:41:39;;;;;;;4.47;2.43;;;12.90;99.90;;;;;;4158324;28;20295;-80
2022/05/13 02:43:42;;;;;;;4.27;2.70;;;12.90;99.90;;;;;;4159679;28;20210;-79
2022/05/13 02:45:46;;;;;;;5.07;2.53;;;12.60;99.90;;;;;;4159281;28;20223;-80
2022/05/13 02:47:48;;;;;;;3.37;2.33;;;12.60;99.90;;;;;;4156256;28;20428;-79
2022/05/13 02:50:17;;;;;;;3.77;2.40;;;12.60;99.90;;;;;;4160512;28;20219;-79
2022/05/13 02:52:19;;;;;;;7.77;2.67;;;12.90;99.90;;;;;;4156722;28;20238;-79
2022/05/13 02:54:21;;;;;;;6.17;2.77;;;12.60;99.90;;;;;;4159079;28;20267;-79
2022/05/13 02:56:23;;;;;;;3.73;2.30;;;12.60;99.90;;;;;;4157040;28;20824;-79
2022/05/13 02:58:25;;;;;;;3.20;2.60;;;12.60;99.90;;;;;;4156490;28;20218;-79
2022/05/13 03:00:27;;;;;;;4.33;2.60;;;13.50;99.90;;;;;;4162405;28;20210;-80
2022/05/13 03:02:30;;;;;;;6.83;3.27;;;12.50;99.90;;;;;;4162587;28;20308;-79
2022/05/13 03:04:32;;;;;;;7.50;3.33;;;12.60;99.90;;;;;;4161228;28;20245;-79
2022/05/13 03:06:34;;;;;;;5.03;2.70;;;12.60;99.90;;;;;;4162142;28;20277;-79
2022/05/13 03:08:36;;;;;;;3.80;2.87;;;12.60;99.90;;;;;;4153649;28;20219;-79
2022/05/13 03:10:39;;;;;;;5.47;2.80;;;12.60;99.90;;;;;;4159974;28;20745;-79
2022/05/13 03:12:41;;;;;;;7.00;2.77;;;12.60;99.90;;;;;;4160288;28;20245;-79
2022/05/13 03:14:43;;;;;;;5.13;2.73;;;12.50;99.90;;;;;;4159748;28;20339;-80
2022/05/13 03:16:46;;;;;;;5.00;2.60;;;12.70;99.90;;;;;;4162162;28;20320;-79
2022/05/13 03:18:52;;;;;;;5.40;2.73;;;12.50;99.90;;;;;;4158572;28;20237;-78
2022/05/13 03:20:54;;;;;;;3.77;2.73;;;12.50;99.90;;;;;;4159090;28;20238;-79
2022/05/13 03:22:56;;;;;;;4.47;2.87;;;13.20;99.90;;;;;;4160150;28;20206;-79
2022/05/13 03:24:57;;;;;;;3.97;2.63;;;12.50;99.90;;;;;;4156707;28;20268;-79
2022/05/13 03:27:00;;;;;;;3.87;2.50;;;12.50;99.90;;;;;;4158987;28;20586;-79
2022/05/13 03:29:02;;;;;;;8.40;3.80;;;12.50;99.90;;;;;;4153617;28;20211;-80
2022/05/13 03:31:04;;;;;;;7.50;3.27;;;12.40;99.90;;;;;;4160972;28;20302;-79
2022/05/13 03:33:06;;;;;;;6.40;3.40;;;12.60;99.90;;;;;;4153152;28;20293;-79
2022/05/13 03:35:12;;;;;;;6.43;3.30;;;12.50;99.90;;;;;;4154194;28;20232;-81
2022/05/13 03:37:13;;;;;;;5.47;3.10;;;12.40;99.90;;;;;;4161300;28;20218;-79
2022/05/13 03:39:15;;;;;;;5.37;3.13;;;12.30;99.90;;;;;;4161242;28;20220;-79
2022/05/13 03:41:17;;;;;;;7.37;3.20;;;12.30;99.90;;;;;;4163176;28;20284;-80
2022/05/13 03:43:20;;;;;;;8.87;3.70;;;12.30;99.90;;;;;;4161146;28;20217;-79
2022/05/13 03:45:22;;;;;;;5.27;3.10;;;12.30;99.90;;;;;;4158509;28;20237;-79
2022/05/13 03:47:24;;;;;;;4.77;2.90;;;12.30;99.90;;;;;;4157772;28;20640;-79
2022/05/13 03:49:26;;;;;;;4.87;3.40;;;12.30;99.90;;;;;;4154564;28;20272;-79
2022/05/13 03:51:29;;;;;;;6.60;3.10;;;12.30;99.90;;;;;;4159024;28;20257;-80
2022/05/13 03:53:31;;;;;;;4.93;2.87;;;12.20;99.90;;;;;;4160969;28;20311;-79
2022/05/13 03:55:35;;;;;;;4.93;2.93;;;12.20;99.90;;;;;;4158822;28;20245;-80
2022/05/13 03:57:37;;;;;;;4.37;2.97;;;12.20;99.90;;;;;;4158723;28;20676;-79
2022/05/13 03:59:40;;;;;;;4.23;2.90;;;12.20;99.90;;;;;;4159965;28;20526;-80
2022/05/13 04:01:42;;;;;;;4.63;3.20;;;12.20;99.90;;;;;;4163161;28;20308;-80
2022/05/13 04:03:43;;;;;;;4.10;3.07;;;12.20;99.90;;;;;;4160456;28;20215;-79
2022/05/13 04:10:26;;;;;;;7.43;4.20;;;12.20;99.90;;;;;;4155459;28;20694;-79
2022/05/13 04:17:17;;;;;;;7.77;3.90;;;12.20;99.90;;;;;;4118606;28;20221;-80
2022/05/13 04:19:20;;;;;;;6.20;3.43;;;12.20;99.90;;;;;;4154806;28;20585;-79
2022/05/13 04:21:25;;;;;;;6.20;3.77;;;12.30;99.90;;;;;;4156641;28;20276;-79
2022/05/13 04:23:28;;;;;;;8.23;4.50;;;12.20;99.90;;;;;;4150576;28;20649;-78
2022/05/13 04:25:30;;;;;;;11.27;5.53;;;12.20;99.90;;;;;;4154692;28;20213;-80
2022/05/13 04:27:33;;;;;;;10.13;4.87;;;12.20;99.90;;;;;;4154677;28;20213;-79
2022/05/13 04:29:36;;;;;;;7.87;4.33;;;12.70;99.90;;;;;;4157071;28;20241;-79
2022/05/13 04:31:40;;;;;;;7.53;4.10;;;12.30;99.90;;;;;;4155183;28;20346;-79
2022/05/13 04:33:42;;;;;;;6.80;4.03;;;12.20;99.90;;;;;;4159297;28;20277;-79
2022/05/13 04:35:46;;;;;;;10.13;3.60;;;12.30;99.90;;;;;;4157507;28;20270;-79
2022/05/13 04:37:48;;;;;;;7.07;3.73;;;12.20;99.90;;;;;;4157110;28;20214;-79
2022/05/13 04:39:53;;;;;;;6.90;4.03;;;12.20;99.90;;;;;;4157426;28;20214;-79
2022/05/13 04:44:15;;;;;;;6.53;3.90;;;12.20;99.90;;;;;;4159851;28;20213;-79
2022/05/13 04:46:18;;;;;;;5.37;3.60;;;12.20;99.90;;;;;;4154420;28;20284;-79
2022/05/13 04:48:21;;;;;;;6.13;3.97;;;12.20;99.90;;;;;;4157186;28;20307;-79
2022/05/13 04:50:23;;;;;;;7.53;3.93;;;12.20;99.90;;;;;;4161118;28;20292;-79
2022/05/13 04:52:25;;;;;;;9.37;4.60;;;12.10;99.90;;;;;;4160477;28;20240;-79
2022/05/13 04:54:27;;;;;;;9.10;4.23;;;12.10;99.90;;;;;;4161803;28;20685;-79
2022/05/13 04:56:31;;;;;;;11.00;4.23;;;12.10;99.90;;;;;;4162317;28;20243;-79
2022/05/13 04:58:33;;;;;;;5.37;3.43;;;12.10;99.90;;;;;;4163752;28;20248;-79
2022/05/13 05:00:35;;;;;;;6.57;3.50;;;12.20;99.90;;;;;;4160934;28;20704;-79
2022/05/13 05:02:37;;;;;;;10.10;3.70;;;12.20;99.90;;;;;;4150468;28;20668;-80
2022/05/13 05:04:39;;;;;;;4.03;3.00;;;12.20;99.90;;;;;;4153350;28;20243;-79
2022/05/13 05:06:41;;;;;;;7.33;3.43;;;12.20;99.90;;;;;;4163895;28;20209;-80
2022/05/13 05:08:44;;;;;;;7.70;3.33;;;11.90;99.90;;;;;;4163550;28;20209;-79
2022/05/13 05:10:47;;;;;;;5.67;3.50;;;12.20;99.90;;;;;;4161441;28;20207;-79
2022/05/13 05:12:54;;;;;;;8.50;3.53;;;12.30;99.90;;;;;;4156548;28;20264;-78
2022/05/13 05:14:57;;;;;;;7.83;4.10;;;12.30;99.90;;;;;;4160907;28;20645;-79
2022/05/13 05:16:59;;;;;;;11.47;3.80;;;12.30;99.90;;;;;;4159344;28;20219;-79
2022/05/13 05:19:01;;;;;;;6.53;3.70;;;12.30;99.90;;;;;;4159735;28;20276;-78
2022/05/13 05:21:03;;;;;;;5.57;3.60;;;12.30;99.90;;;;;;4164688;28;20710;-78
2022/05/13 05:23:05;;;;;;;7.53;3.20;;;12.40;99.90;;;;;;4160989;28;20682;-78
2022/05/13 05:25:07;;;;;;;9.17;3.50;;;12.40;99.90;;;;;;4165640;28;20271;-79
2022/05/13 05:27:10;;;;;;;9.77;4.10;;;12.40;99.90;;;;;;4164542;28;20214;-78
2022/05/13 05:29:13;;;;;;;8.73;4.03;;;12.40;99.90;;;;;;4167267;28;20238;-78
2022/05/13 05:31:15;;;;;;;7.63;3.53;;;12.40;99.90;;;;;;4165660;28;20230;-78
2022/05/13 05:33:19;;;;;;;12.50;3.77;;;12.40;99.90;;;;;;4167680;28;20324;-78
2022/05/13 05:35:23;;;;;;;11.73;3.63;;;12.50;99.90;;;;;;4168648;28;20233;-78
2022/05/13 05:37:25;;;;;;;6.13;3.47;;;12.50;99.90;;;;;;4161838;28;20218;-79
2022/05/13 05:39:27;;;;;;;7.93;3.80;;;12.50;99.90;;;;;;4164161;28;20678;-79
2022/05/13 05:41:29;;;;;;;7.53;3.60;;;12.50;99.90;;;;;;4163259;28;20303;-78
2022/05/13 05:43:31;;;;;;;17.00;3.93;;;12.50;99.90;;;;;;4159744;28;20260;-78
2022/05/13 05:45:36;;;;;;;10.00;4.03;;;12.50;99.90;;;;;;4161626;28;20641;-78
2022/05/13 05:47:37;;;;;;;9.63;4.00;;;12.50;99.90;;;;;;4160059;28;20303;-79
2022/05/13 05:49:39;;;;;;;9.40;3.83;;;12.60;99.90;;;;;;4162363;28;20268;-79
2022/05/13 05:51:41;;;;;;;9.43;3.70;;;12.60;99.90;;;;;;4161065;28;20238;-79
2022/05/13 05:58:22;;;;;;;13.53;7.37;;;12.60;99.90;;;;;;4154701;28;20263;-80
2022/05/13 06:00:24;;;;;;;20.90;9.77;;;12.70;99.90;;;;;;4154991;28;20218;-79
2022/05/13 06:02:27;;;;;;;11.17;6.53;;;12.80;99.90;;;;;;4154005;28;20250;-79
2022/05/13 06:04:29;;;;;;;12.17;4.60;;;12.80;99.90;;;;;;4151591;28;20216;-79
2022/05/13 06:06:31;;;;;;;9.80;4.77;;;12.80;99.90;;;;;;4147799;28;20222;-81
2022/05/13 06:08:33;;;;;;;16.27;4.60;;;12.90;99.90;;;;;;4150332;28;20261;-79
2022/05/13 06:10:36;;;;;;;10.00;3.73;;;13.00;99.90;;;;;;4156989;28;20276;-80
2022/05/13 06:12:38;;;;;;;11.77;3.60;;;13.10;99.90;;;;;;4152341;28;20273;-79
2022/05/13 06:14:41;;;;;;;6.80;3.60;;;13.10;99.90;;;;;;4155016;28;20239;-79
2022/05/13 06:16:43;;;;;;;7.67;3.70;;;13.10;99.90;;;;;;4155312;28;20257;-79
2022/05/13 06:18:47;;;;;;;17.43;4.47;;;13.20;99.90;;;;;;4150377;28;20258;-80
2022/05/13 06:20:49;;;;;;;8.30;3.97;;;13.20;99.90;;;;;;4154588;28;20671;-79
2022/05/13 06:22:51;;;;;;;8.27;4.63;;;13.30;99.90;;;;;;4157812;28;20241;-82
2022/05/13 06:24:53;;;;;;;10.03;3.73;;;13.40;99.90;;;;;;4156219;28;20223;-79
2022/05/13 06:26:55;;;;;;;11.63;4.77;;;13.50;99.90;;;;;;4154812;28;20610;-80
2022/05/13 06:28:57;;;;;;;7.70;3.93;;;13.50;99.90;;;;;;4151725;28;20506;-79
2022/05/13 06:30:59;;;;;;;8.37;4.23;;;13.60;99.90;;;;;;4156544;28;20251;-80
2022/05/13 06:33:02;;;;;;;8.60;4.50;;;13.70;99.90;;;;;;4158934;28;20215;-79
2022/05/13 06:35:07;;;;;;;8.03;4.67;;;13.70;99.90;;;;;;4157680;28;20231;-79
2022/05/13 06:37:12;;;;;;;11.33;4.90;;;13.80;99.90;;;;;;4152153;28;20211;-80
2022/05/13 06:39:14;;;;;;;10.57;4.63;;;13.80;99.90;;;;;;4151837;28;20222;-79
2022/05/13 06:41:16;;;;;;;9.13;4.50;;;13.90;99.90;;;;;;4157160;28;20726;-79
2022/05/13 06:43:18;;;;;;;8.37;4.50;;;14.00;99.90;;;;;;4156567;28;20673;-80
2022/05/13 06:45:20;;;;;;;10.63;4.60;;;14.10;99.90;;;;;;4149692;28;20664;-79
2022/05/13 06:47:22;;;;;;;8.07;4.10;;;14.20;99.90;;;;;;4155508;28;20223;-79
2022/05/13 06:49:24;;;;;;;9.73;4.90;;;14.30;99.90;;;;;;4153503;28;20652;-79
2022/05/13 06:51:27;;;;;;;12.50;4.80;;;14.40;99.90;;;;;;4157869;28;20341;-80
2022/05/13 06:53:29;;;;;;;7.33;4.63;;;14.50;99.90;;;;;;4153851;28;20291;-79
2022/05/13 06:55:31;;;;;;;10.57;4.90;;;14.60;99.90;;;;;;4155949;28;20647;-79
2022/05/13 06:57:33;;;;;;;8.67;4.43;;;14.60;99.90;;;;;;4155972;28;20216;-80
2022/05/13 06:59:35;;;;;;;8.57;4.30;;;14.70;99.90;;;;;;4154436;28;20266;-79
2022/05/13 07:01:37;;;;;;;12.27;4.50;;;14.80;99.90;;;;;;4157676;28;20247;-80
2022/05/13 07:03:39;;;;;;;16.13;4.27;;;14.80;99.90;;;;;;4156381;28;20218;-79
2022/05/13 07:05:41;;;;;;;10.80;3.90;;;14.90;99.90;;;;;;4153295;28;20574;-79
2022/05/13 07:07:44;;;;;;;9.63;3.83;;;15.00;99.90;;;;;;4155971;28;20212;-80
2022/05/13 07:09:46;;;;;;;6.77;3.20;;;15.10;99.90;;;;;;4154877;28;20271;-79
2022/05/13 07:11:48;;;;;;;9.97;3.60;;;15.10;99.90;;;;;;4160100;28;20322;-79
2022/05/13 07:13:50;;;;;;;9.50;3.20;;;15.20;99.90;;;;;;4159835;28;20212;-80
2022/05/13 07:15:51;;;;;;;10.37;3.40;;;15.30;99.90;;;;;;4159279;28;20220;-80
2022/05/13 07:17:53;;;;;;;8.07;4.10;;;15.40;99.90;;;;;;4156324;28;20659;-80
2022/05/13 07:19:55;;;;;;;7.67;3.43;;;15.50;99.90;;;;;;4155748;28;20222;-80
2022/05/13 07:21:57;;;;;;;6.73;3.40;;;15.60;99.90;;;;;;4157420;28;20232;-80
2022/05/13 07:24:00;;;;;;;8.47;3.60;;;15.80;99.90;;;;;;4156638;28;20268;-80
2022/05/13 07:26:02;;;;;;;6.10;3.17;;;15.90;99.50;;;;;;4156931;28;20225;-80
2022/05/13 07:28:05;;;;;;;9.47;3.80;;;16.00;98.70;;;;;;4157411;28;20283;-80
2022/05/13 07:30:08;;;;;;;8.67;3.30;;;16.00;98.00;;;;;;4157222;28;20217;-80
2022/05/13 07:32:10;;;;;;;7.50;3.40;;;16.10;94.90;;;;;;4155138;28;20683;-80
2022/05/13 07:34:12;;;;;;;6.97;3.20;;;16.20;94.70;;;;;;4153011;28;20345;-80
2022/05/13 07:36:14;;;;;;;8.57;3.07;;;16.30;93.30;;;;;;4159747;28;20218;-80
2022/05/13 07:38:16;;;;;;;6.93;2.60;;;16.40;92.10;;;;;;4151452;28;20210;-80
2022/05/13 07:42:39;;;;;;;7.90;2.97;;;16.50;80.00;;;;;;4157434;28;20286;-80
2022/05/13 07:44:41;;;;;;;8.20;3.03;;;16.60;76.60;;;;;;4157301;28;20210;-80
2022/05/13 07:46:44;;;;;;;7.13;2.90;;;16.70;77.30;;;;;;4159689;28;20218;-80
2022/05/13 07:48:46;;;;;;;5.53;2.53;;;16.70;73.50;;;;;;4157356;28;20222;-80
2022/05/13 07:50:47;;;;;;;8.90;2.30;;;16.80;76.20;;;;;;4152638;28;20675;-80
2022/05/13 07:52:50;;;;;;;5.63;2.20;;;17.00;78.30;;;;;;4151948;28;20222;-80
2022/05/13 07:54:52;;;;;;;6.27;2.60;;;17.10;75.90;;;;;;4150087;28;20245;-82
2022/05/13 07:56:55;;;;;;;7.53;2.80;;;17.20;72.70;;;;;;4149525;28;20764;-81
2022/05/13 07:58:57;;;;;;;21.90;5.50;;;17.30;73.10;;;;;;4149595;28;20266;-80
2022/05/13 08:01:00;;;;;;;12.40;4.20;;;17.40;69.40;;;;;;4154703;28;20234;-80
2022/05/13 08:03:04;;;;;;;11.57;3.40;;;17.50;68.80;;;;;;4157562;28;20218;-80
2022/05/13 08:05:08;;;;;;;8.83;3.60;;;17.60;66.70;;;;;;4159653;28;20268;-80
2022/05/13 08:07:10;;;;;;;8.97;3.03;;;17.70;63.60;;;;;;4159308;28;20219;-80
2022/05/13 08:09:12;;;;;;;6.70;2.60;;;17.70;63.30;;;;;;4156352;28;20215;-80
2022/05/13 08:11:16;;;;;;;7.00;2.43;;;17.80;62.40;;;;;;4156001;28;20228;-80
2022/05/13 08:13:20;;;;;;;9.07;2.87;;;17.90;63.00;;;;;;4155177;28;20243;-80
2022/05/13 08:15:22;;;;;;;13.63;2.27;;;18.00;61.30;;;;;;4153400;28;20244;-80
2022/05/13 08:17:23;;;;;;;6.07;2.70;;;18.10;59.90;;;;;;4147717;28;20211;-80
2022/05/13 08:19:25;;;;;;;6.93;2.50;;;18.20;59.90;;;;;;4150997;28;20474;-80
2022/05/13 08:21:27;;;;;;;7.20;2.47;;;18.30;58.30;;;;;;4148420;28;20322;-80
2022/05/13 08:23:32;;;;;;;6.33;2.60;;;18.40;57.00;;;;;;4151135;28;20220;-81
2022/05/13 08:25:33;;;;;;;7.10;2.57;;;18.40;55.70;;;;;;4153124;28;20263;-81
2022/05/13 08:27:35;;;;;;;7.23;2.87;;;18.50;55.70;;;;;;4158700;28;20275;-80
2022/05/13 08:29:38;;;;;;;10.93;2.40;;;18.40;56.20;;;;;;4155389;28;20336;-81
2022/05/13 08:31:40;;;;;;;10.77;2.67;;;18.40;57.40;;;;;;4151863;28;20290;-81
2022/05/13 08:33:42;;;;;;;12.97;2.73;;;18.50;56.90;;;;;;4153511;28;20215;-81
2022/05/13 08:35:46;;;;;;;5.57;2.60;;;18.50;57.30;;;;;;4157252;28;20302;-80
2022/05/13 08:37:50;;;;;;;10.13;2.70;;;18.50;56.80;;;;;;4163923;28;20225;-81
2022/05/13 08:39:52;;;;;;;7.43;2.60;;;18.60;57.30;;;;;;4168124;28;20803;-81
2022/05/13 08:42:09;;;;;;;8.37;2.53;;;18.70;58.40;;;;;;4156529;28;20237;-80
2022/05/13 08:44:15;;;;;;;8.67;2.70;;;18.70;57.90;;;;;;4154069;28;20724;-81
2022/05/13 08:46:32;;;;;;;8.40;2.60;;;18.80;56.80;;;;;;4156360;28;20208;-80
2022/05/13 08:48:42;;;;;;;11.23;2.60;;;18.90;57.90;;;;;;4150085;28;20371;-80
2022/05/13 08:50:54;;;;;;;15.53;2.70;;;18.90;57.10;;;;;;4156173;28;20620;-80
2022/05/13 08:53:09;;;;;;;11.63;2.70;;;18.90;55.80;;;;;;4157312;28;20376;-80
2022/05/13 08:55:15;;;;;;;10.90;2.50;;;18.90;56.30;;;;;;4159999;28;20313;-80
2022/05/13 08:57:17;;;;;;;8.13;2.03;;;18.90;56.30;;;;;;4160499;28;20224;-80
2022/05/13 08:59:22;;;;;;;10.30;2.30;;;18.90;55.50;;;;;;4160251;28;20304;-80
2022/05/13 09:01:29;;;;;;;8.73;2.97;;;18.90;55.70;;;;;;4157326;28;20342;-80
2022/05/13 09:03:38;;;;;;;6.67;2.50;;;18.80;55.40;;;;;;4113501;28;20220;-80
2022/05/13 09:05:47;;;;;;;13.30;2.40;;;18.80;56.60;;;;;;4065193;28;83747;-81
2022/05/13 09:07:51;;;;;;;10.37;2.23;;;18.80;57.10;;;;;;4145161;28;20664;-80
2022/05/13 09:11:21;;;;;;;4.37;2.17;;;18.90;56.40;;;;;;4127418;27;20596;-80
2022/05/13 09:13:28;;;;;;;4.00;1.90;;;18.80;53.70;;;;;;4117372;27;21195;-80
2022/05/13 09:15:36;;;;;;;5.40;2.20;;;18.90;53.70;;;;;;4153043;27;85741;-80
2022/05/13 09:17:40;;;;;;;8.73;2.30;;;18.90;52.70;;;;;;4102531;28;21317;-80
2022/05/13 09:19:49;;;;;;;4.43;1.90;;;18.90;53.40;;;;;;4212849;28;20216;-80
2022/05/13 09:21:51;;;;;;;7.13;2.43;;;18.90;52.90;;;;;;4145948;28;20241;-80
2022/05/13 09:23:52;;;;;;;8.50;2.53;;;18.90;53.00;;;;;;4122005;28;20634;-80
2022/05/13 09:26:04;;;;;;;8.13;2.80;;;18.90;54.20;;;;;;4127424;28;20299;-80
2022/05/13 09:28:13;;;;;;;8.80;2.30;;;19.00;55.60;;;;;;4091166;28;20298;-80
2022/05/13 09:30:20;;;;;;;5.80;2.43;;;19.00;55.80;;;;;;4125750;28;20230;-80
2022/05/13 09:32:25;;;;;;;7.40;2.80;;;19.10;55.40;;;;;;4121789;28;20691;-80
2022/05/13 09:34:34;;;;;;;9.03;2.63;;;19.10;53.80;;;;;;4139695;28;20220;-80
2022/05/13 09:36:36;;;;;;;6.50;2.30;;;19.20;53.50;;;;;;4122470;28;20226;-81
2022/05/13 09:38:43;;;;;;;8.77;2.77;;;19.20;53.50;;;;;;4124933;28;20226;-80
2022/05/13 09:40:57;;;;;;;7.83;2.17;;;19.30;52.60;;;;;;4139110;28;20227;-80
2022/05/13 09:42:59;;;;;;;9.23;2.87;;;19.30;52.80;;;;;;4129028;28;20753;-81
2022/05/13 09:45:19;;;;;;;7.20;2.57;;;19.20;51.60;;;;;;4127132;28;20600;-81
2022/05/13 09:47:30;;;;;;;11.70;2.70;;;19.30;51.60;;;;;;4124605;28;20209;-81
2022/05/13 09:49:36;;;;;;;9.03;2.40;;;19.40;51.20;;;;;;4130642;28;20242;-81
2022/05/13 09:51:39;;;;;;;6.10;2.20;;;19.40;51.70;;;;;;4143224;28;20232;-81
2022/05/13 09:53:41;;;;;;;6.77;2.57;;;19.40;50.90;;;;;;4129757;28;20220;-81
2022/05/13 09:55:44;;;;;;;9.70;2.13;;;19.50;51.20;;;;;;4220075;28;20217;-81
2022/05/13 09:57:50;;;;;;;6.57;2.23;;;19.50;52.00;;;;;;4121588;28;20762;-80
2022/05/13 10:00:01;;;;;;;9.80;2.27;;;19.40;51.10;;;;;;4133115;28;20217;-81
2022/05/13 10:02:20;;;;;;;13.53;2.07;;;19.30;51.10;;;;;;4121241;28;20241;-80
2022/05/13 10:04:24;;;;;;;8.20;1.97;;;19.30;50.80;;;;;;4130713;28;20269;-80
2022/05/13 10:06:34;;;;;;;6.77;1.80;;;19.30;50.60;;;;;;4158425;28;20209;-80
2022/05/13 10:08:39;;;;;;;6.97;2.13;;;19.30;49.70;;;;;;4146650;28;20638;-80
2022/05/13 10:15:44;;;;;;;8.87;1.77;;;19.70;47.90;;;;;;4118102;28;20608;-83
2022/05/13 10:17:52;;;;;;;5.23;1.60;;;19.70;47.30;;;;;;4127339;28;20700;-84
2022/05/13 10:19:58;;;;;;;5.40;1.90;;;19.80;47.10;;;;;;4129118;28;20639;-85
2022/05/13 10:22:07;;;;;;;6.87;1.80;;;19.80;46.50;;;;;;4111894;28;20699;-85
2022/05/13 10:24:25;;;;;;;5.87;2.00;;;19.80;46.40;;;;;;4109238;28;20212;-83
2022/05/13 10:26:32;;;;;;;8.23;1.93;;;19.80;46.00;;;;;;4110721;28;20221;-83
2022/05/13 10:28:38;;;;;;;5.27;2.27;;;19.80;46.30;;;;;;4112045;28;20474;-82
2022/05/13 10:30:45;;;;;;;3.67;2.07;;;19.80;46.30;;;;;;4135953;28;20228;-82
2022/05/13 10:32:57;;;;;;;7.70;2.10;;;19.80;46.30;;;;;;4120655;28;20220;-82
2022/05/13 10:35:05;;;;;;;4.63;1.80;;;19.90;46.70;;;;;;4111104;28;20266;-82
2022/05/13 10:37:11;;;;;;;4.33;1.60;;;20.00;46.80;;;;;;4112169;28;20208;-83
2022/05/13 10:39:22;;;;;;;6.03;1.43;;;20.00;45.60;;;;;;4108799;28;20218;-82
2022/05/13 10:41:34;;;;;;;7.90;1.90;;;20.10;45.30;;;;;;4106397;28;20224;-82
2022/05/13 10:43:44;;;;;;;9.80;1.70;;;20.10;44.80;;;;;;4113707;28;20205;-83
2022/05/13 10:45:47;;;;;;;6.50;1.80;;;20.10;44.30;;;;;;4118022;28;20298;-83
2022/05/13 10:47:54;;;;;;;6.60;1.80;;;20.20;44.10;;;;;;4113147;28;20215;-83
2022/05/13 10:49:56;;;;;;;10.50;1.90;;;20.30;43.40;;;;;;4109742;28;20215;-84
2022/05/13 10:52:06;;;;;;;4.33;1.80;;;20.30;43.20;;;;;;4110981;28;20233;-83
2022/05/13 10:54:19;;;;;;;5.30;1.50;;;20.60;42.90;;;;;;4112465;28;20202;-83
2022/05/13 10:56:28;;;;;;;5.63;1.57;;;20.10;43.10;;;;;;4106937;28;20216;-82
2022/05/13 10:58:37;;;;;;;6.50;1.73;;;20.00;43.80;;;;;;4113094;28;20213;-84
2022/05/13 11:00:44;;;;;;;9.50;1.60;;;20.10;44.30;;;;;;4109793;28;20486;-83
2022/05/13 11:03:18;;;;;;;5.93;1.50;;;20.00;44.20;;;;;;4109741;28;20268;-84
2022/05/13 11:05:31;;;;;;;5.83;1.50;;;20.10;45.00;;;;;;4111347;28;20213;-84
2022/05/13 11:07:37;;;;;;;4.43;1.50;;;20.10;45.20;;;;;;4208977;28;20242;-83
2022/05/13 11:09:47;;;;;;;5.60;1.40;;;20.20;44.60;;;;;;4108874;28;20819;-83
2022/05/13 11:11:49;;;;;;;8.03;1.80;;;20.30;44.50;;;;;;4113085;28;20233;-84
2022/05/13 11:14:03;;;;;;;3.97;1.53;;;20.50;44.30;;;;;;4114492;28;20217;-83
2022/05/13 11:16:15;;;;;;;5.93;1.50;;;20.50;43.60;;;;;;4109687;28;20247;-83
2022/05/13 11:18:24;;;;;;;7.27;1.50;;;20.50;43.60;;;;;;4110504;28;20209;-83
2022/05/13 11:20:37;;;;;;;6.83;1.47;;;20.50;44.20;;;;;;4111175;28;20220;-83
2022/05/13 11:22:44;;;;;;;7.10;1.60;;;20.60;45.00;;;;;;4123800;28;20335;-83
2022/05/13 11:27:38;;;;;;;7.83;1.90;;;20.80;44.20;;;;;;4059889;29;20218;-83
2022/05/13 11:29:45;;;;;;;9.77;1.77;;;20.70;43.50;;;;;;4099151;28;20221;-84
2022/05/13 11:32:07;;;;;;;4.60;1.67;;;20.80;43.10;;;;;;4116051;28;20304;-84
2022/05/13 11:34:23;;;;;;;9.37;1.60;;;20.80;42.90;;;;;;4117229;28;20220;-83
2022/05/13 11:36:36;;;;;;;8.90;1.73;;;20.90;43.10;;;;;;4109972;28;20213;-84
2022/05/13 11:38:53;;;;;;;8.87;1.60;;;20.90;42.20;;;;;;4108346;28;20216;-84
2022/05/13 11:41:03;;;;;;;5.20;1.80;;;21.10;43.00;;;;;;4109230;28;20233;-85
2022/05/13 11:43:19;;;;;;;7.40;1.80;;;21.60;42.70;;;;;;4110886;28;20236;-84
2022/05/13 11:45:31;;;;;;;12.17;2.00;;;22.10;41.80;;;;;;4102625;28;20225;-85
2022/05/13 11:47:45;;;;;;;9.80;2.10;;;22.70;41.40;;;;;;4107846;28;20209;-84
2022/05/13 11:49:49;;;;;;;8.37;1.90;;;23.40;39.20;;;;;;4111846;28;20614;-85
2022/05/13 11:51:51;;;;;;;8.33;1.83;;;23.60;37.70;;;;;;4109968;28;20225;-84
2022/05/13 11:54:26;;;;;;;4.40;1.67;;;24.10;37.50;;;;;;4108947;28;20208;-86
2022/05/13 11:56:34;;;;;;;6.67;1.60;;;24.70;36.00;;;;;;4109643;28;20247;-84
2022/05/13 11:58:48;;;;;;;3.07;1.40;;;24.60;33.80;;;;;;4113411;28;20410;-85
2022/05/13 12:00:49;;;;;;;6.00;1.37;;;24.40;33.30;;;;;;4114221;28;20205;-84
2022/05/13 12:02:55;;;;;;;3.93;1.20;;;24.50;32.50;;;;;;4108684;28;20212;-85
2022/05/13 12:05:30;;;;;;;6.47;1.37;;;24.90;32.00;;;;;;4121825;28;20212;-85
2022/05/13 12:07:38;;;;;;;9.77;1.30;;;25.50;30.90;;;;;;4109481;28;20767;-85
2022/05/13 12:09:44;;;;;;;9.03;1.67;;;26.10;29.60;;;;;;4116974;28;20224;-84
2022/05/13 12:11:53;;;;;;;5.53;1.20;;;26.40;28.90;;;;;;4153312;28;20236;-85
2022/05/13 12:14:06;;;;;;;5.63;1.30;;;26.80;28.30;;;;;;4119103;28;20686;-86
2022/05/13 12:16:21;;;;;;;6.33;1.57;;;27.20;27.40;;;;;;4109914;28;20204;-84
2022/05/13 12:18:32;;;;;;;15.17;1.80;;;27.20;26.60;;;;;;4110712;28;20217;-85
2022/05/13 12:20:50;;;;;;;5.27;1.30;;;27.30;27.00;;;;;;4107078;28;20679;-84
2022/05/13 12:23:02;;;;;;;7.03;1.47;;;27.40;27.50;;;;;;4115693;28;20205;-85
2022/05/13 12:25:07;;;;;;;8.90;1.70;;;27.70;27.20;;;;;;4133772;28;20953;-85